Time;durP1;ratioP1;P1;durP2;ratioP2;P2;SDS_P1;SDS_P2;PMS_P1;PMS_P2;Temp;Humidity;BMP_temperature;BMP_pressure;BME280_temperature;BME280_humidity;BME280_pressure;Samples;Min_cycle;Max_cycle;Signal;HPM_P1;HPM_P2
2023/08/28 00:01:18;;;;;;;16.17;13.13;;;22.60;99.90;;;;;;5091713;28;20868;-70
2023/08/28 00:04:08;;;;;;;19.02;13.75;;;22.50;99.90;;;;;;5086492;28;20296;-70
2023/08/28 00:06:58;;;;;;;15.38;13.70;;;22.50;1.00;;;;;;5082739;28;20292;-72
2023/08/28 00:09:47;;;;;;;16.42;14.10;;;22.40;1.00;;;;;;5102254;28;20226;-69
2023/08/28 00:12:40;;;;;;;16.10;13.35;;;22.40;1.00;;;;;;5098680;27;20215;-72
2023/08/28 00:15:29;;;;;;;20.27;13.45;;;22.50;1.00;;;;;;5098411;28;20355;-70
2023/08/28 00:18:18;;;;;;;16.55;14.15;;;22.40;1.00;;;;;;5073565;28;20348;-72
2023/08/28 00:21:09;;;;;;;16.52;13.70;;;22.40;1.00;;;;;;5076335;28;20247;-66
2023/08/28 00:23:58;;;;;;;17.30;13.88;;;22.40;1.00;;;;;;5077551;28;20263;-70
2023/08/28 00:26:48;;;;;;;18.27;13.30;;;22.40;1.00;;;;;;5079876;28;20238;-70
2023/08/28 00:29:37;;;;;;;16.33;13.13;;;22.40;1.00;;;;;;5093715;28;20227;-71
2023/08/28 00:32:27;;;;;;;17.10;13.65;;;22.50;1.00;;;;;;5100424;28;20231;-70
2023/08/28 00:35:16;;;;;;;18.40;14.40;;;22.40;1.00;;;;;;5087381;28;20230;-70
2023/08/28 00:38:07;;;;;;;15.70;13.93;;;22.40;1.00;;;;;;5076910;28;20321;-68
2023/08/28 00:40:56;;;;;;;17.90;14.45;;;22.50;1.00;;;;;;5095049;28;20277;-69
2023/08/28 00:43:45;;;;;;;16.15;14.35;;;22.40;1.00;;;;;;5078160;28;20222;-72
2023/08/28 00:46:34;;;;;;;18.90;15.38;;;22.40;1.00;;;;;;5069561;28;20234;-72
2023/08/28 00:49:24;;;;;;;16.88;14.73;;;22.40;1.00;;;;;;5065291;28;20952;-71
2023/08/28 00:52:13;;;;;;;16.10;14.50;;;22.30;1.00;;;;;;5060234;28;20234;-71
2023/08/28 00:55:04;;;;;;;17.05;14.18;;;22.30;1.00;;;;;;5082182;28;20383;-71
2023/08/28 00:57:54;;;;;;;15.00;13.50;;;22.30;1.00;;;;;;5080055;28;20539;-70
2023/08/28 01:00:43;;;;;;;21.83;14.93;;;22.30;1.00;;;;;;5075270;28;20780;-67
2023/08/28 01:03:32;;;;;;;21.15;14.60;;;22.30;99.90;;;;;;5084135;28;20227;-69
2023/08/28 01:06:30;;;;;;;17.85;14.20;;;22.20;99.90;;;;;;5081369;28;20230;-68
2023/08/28 01:09:41;;;;;;;18.40;13.55;;;22.10;99.90;;;;;;5085023;28;20264;-68
2023/08/28 01:12:39;;;;;;;18.15;13.77;;;22.00;99.90;;;;;;5084043;28;20224;-68
2023/08/28 01:15:31;;;;;;;19.65;13.05;;;21.90;99.90;;;;;;5095955;28;20701;-67
2023/08/28 01:18:20;;;;;;;21.42;13.65;;;21.70;99.90;;;;;;5077984;28;20977;-70
2023/08/28 01:21:10;;;;;;;22.20;12.45;;;21.80;99.90;;;;;;5091716;28;20227;-70
2023/08/28 01:24:04;;;;;;;14.13;11.63;;;21.80;99.90;;;;;;5073885;28;20220;-69
2023/08/28 01:26:55;;;;;;;14.55;11.23;;;21.80;99.90;;;;;;5084518;28;20719;-70
2023/08/28 01:29:44;;;;;;;8.73;7.30;;;21.60;99.90;;;;;;5097731;28;20227;-70
2023/08/28 01:32:34;;;;;;;8.68;6.10;;;21.40;99.90;;;;;;5078371;28;20560;-70
2023/08/28 01:35:26;;;;;;;7.07;5.78;;;21.30;99.90;;;;;;5077484;28;20361;-70
2023/08/28 01:38:25;;;;;;;5.63;4.93;;;21.20;99.90;;;;;;5081057;28;20230;-69
2023/08/28 01:41:18;;;;;;;7.00;4.72;;;21.20;99.90;;;;;;5082425;28;20226;-71
2023/08/28 01:44:09;;;;;;;7.25;4.43;;;21.20;99.90;;;;;;5077681;28;20891;-71
2023/08/28 01:46:59;;;;;;;4.72;4.22;;;21.10;99.90;;;;;;5073930;28;20817;-71
2023/08/28 01:49:48;;;;;;;7.05;4.57;;;21.20;99.90;;;;;;5074738;28;20243;-69
2023/08/28 01:52:37;;;;;;;4.75;4.28;;;21.10;99.90;;;;;;5075587;28;20687;-70
2023/08/28 01:56:04;;;;;;;5.38;3.60;;;21.00;99.90;;;;;;5091037;28;20226;-70
2023/08/28 01:58:55;;;;;;;4.40;3.63;;;20.90;99.90;;;;;;5073465;28;20218;-70
2023/08/28 02:01:46;;;;;;;4.55;3.75;;;20.90;99.90;;;;;;5077953;28;20287;-70
2023/08/28 02:04:35;;;;;;;5.38;3.47;;;20.90;99.90;;;;;;5091499;28;20268;-69
2023/08/28 02:07:24;;;;;;;4.00;3.60;;;20.80;99.90;;;;;;5079468;28;20695;-69
2023/08/28 02:10:13;;;;;;;4.20;3.53;;;20.70;99.90;;;;;;5094524;28;20234;-69
2023/08/28 02:13:03;;;;;;;6.70;3.90;;;20.60;99.90;;;;;;5095730;28;20701;-71
2023/08/28 02:15:53;;;;;;;3.47;3.17;;;20.70;99.90;;;;;;5080161;28;20225;-70
2023/08/28 02:18:43;;;;;;;7.20;3.70;;;20.70;99.90;;;;;;5091229;28;20223;-70
2023/08/28 02:21:32;;;;;;;4.45;4.00;;;20.70;99.90;;;;;;5081135;28;20245;-71
2023/08/28 02:24:21;;;;;;;4.47;3.47;;;20.60;99.90;;;;;;5075633;28;20223;-70
2023/08/28 02:27:10;;;;;;;7.10;3.70;;;20.50;99.90;;;;;;5081156;28;20233;-69
2023/08/28 02:29:59;;;;;;;4.68;3.65;;;20.60;99.90;;;;;;5076533;28;20223;-71
2023/08/28 02:32:48;;;;;;;3.80;3.42;;;20.40;99.90;;;;;;5072464;28;20670;-69
2023/08/28 02:35:39;;;;;;;5.07;4.05;;;20.50;99.90;;;;;;5079106;28;20219;-68
2023/08/28 02:38:28;;;;;;;4.88;4.03;;;20.40;99.90;;;;;;5080516;28;20363;-67
2023/08/28 02:41:17;;;;;;;3.75;3.45;;;20.40;99.90;;;;;;5100066;28;20321;-69
2023/08/28 02:44:07;;;;;;;4.32;3.90;;;20.40;99.90;;;;;;5075238;28;20242;-70
2023/08/28 02:46:56;;;;;;;5.38;3.53;;;20.40;99.90;;;;;;5072718;28;20231;-69
2023/08/28 02:49:45;;;;;;;4.45;3.70;;;20.40;99.90;;;;;;5062541;28;20254;-68
2023/08/28 02:52:35;;;;;;;6.50;3.65;;;20.50;99.90;;;;;;5058451;28;20235;-68
2023/08/28 02:55:24;;;;;;;5.00;3.70;;;20.40;99.90;;;;;;5079197;28;20246;-69
2023/08/28 02:58:13;;;;;;;4.93;3.83;;;20.40;99.90;;;;;;5082663;28;20215;-69
2023/08/28 03:01:02;;;;;;;4.78;3.75;;;20.50;99.90;;;;;;5094972;28;20293;-69
2023/08/28 03:03:51;;;;;;;4.57;3.65;;;20.40;99.90;;;;;;5082439;28;20714;-69
2023/08/28 03:06:41;;;;;;;5.65;4.25;;;20.30;99.90;;;;;;5080469;28;20226;-69
2023/08/28 03:09:33;;;;;;;4.55;3.75;;;20.20;99.90;;;;;;5075627;28;20242;-70
2023/08/28 03:12:22;;;;;;;5.38;4.10;;;20.20;99.90;;;;;;5082346;28;20282;-70
2023/08/28 03:15:11;;;;;;;7.25;4.40;;;20.20;99.90;;;;;;5080780;28;20227;-68
2023/08/28 03:18:00;;;;;;;5.93;4.18;;;20.20;99.90;;;;;;5082105;28;20227;-69
2023/08/28 03:20:49;;;;;;;4.85;4.00;;;20.20;99.90;;;;;;5080086;28;20311;-70
2023/08/28 03:23:38;;;;;;;5.38;4.32;;;20.10;99.90;;;;;;5093047;28;20718;-69
2023/08/28 03:26:30;;;;;;;5.35;4.40;;;20.20;99.90;;;;;;5081258;28;20582;-69
2023/08/28 03:29:19;;;;;;;6.43;4.80;;;20.10;99.90;;;;;;5096937;28;20269;-70
2023/08/28 03:32:08;;;;;;;7.05;4.55;;;19.90;99.90;;;;;;5080010;28;20222;-70
2023/08/28 03:34:57;;;;;;;7.25;4.78;;;19.90;99.90;;;;;;5093033;28;20285;-70
2023/08/28 03:37:46;;;;;;;6.53;4.97;;;20.00;99.90;;;;;;5077965;28;20260;-69
2023/08/28 03:40:36;;;;;;;7.43;5.32;;;20.00;99.90;;;;;;5074925;28;20236;-69
2023/08/28 03:43:27;;;;;;;8.48;5.53;;;20.00;99.90;;;;;;5089377;28;20678;-69
2023/08/28 03:46:16;;;;;;;6.30;5.35;;;20.00;99.90;;;;;;5080656;28;20241;-70
2023/08/28 03:49:05;;;;;;;8.93;5.38;;;19.90;99.90;;;;;;5073861;28;20780;-70
2023/08/28 03:51:54;;;;;;;6.32;5.65;;;19.90;99.90;;;;;;5079832;28;20318;-70
2023/08/28 03:54:43;;;;;;;7.07;4.95;;;19.80;99.90;;;;;;5086216;28;20311;-69
2023/08/28 03:57:34;;;;;;;6.07;5.47;;;19.80;99.90;;;;;;5095621;28;20709;-69
2023/08/28 04:00:25;;;;;;;8.75;5.25;;;19.90;99.90;;;;;;5093452;28;20263;-68
2023/08/28 04:03:15;;;;;;;6.57;5.57;;;19.90;99.90;;;;;;5094019;28;20206;-70
2023/08/28 04:06:04;;;;;;;6.25;5.65;;;19.90;99.90;;;;;;5096564;28;20294;-69
2023/08/28 04:08:53;;;;;;;6.53;5.72;;;19.90;99.90;;;;;;5105266;28;20224;-70
2023/08/28 04:11:43;;;;;;;7.68;5.50;;;19.90;99.90;;;;;;5098704;28;20313;-69
2023/08/28 04:14:32;;;;;;;6.55;5.50;;;19.80;99.90;;;;;;5067144;28;20278;-69
2023/08/28 04:17:22;;;;;;;6.72;5.80;;;19.90;99.90;;;;;;5079223;28;20760;-70
2023/08/28 04:20:14;;;;;;;9.68;6.13;;;20.00;99.90;;;;;;5084624;28;20216;-69
2023/08/28 04:23:03;;;;;;;6.75;5.50;;;19.90;99.90;;;;;;5105593;28;20221;-74
2023/08/28 04:25:53;;;;;;;6.88;6.00;;;19.90;99.90;;;;;;5083571;28;20379;-70
2023/08/28 04:28:42;;;;;;;6.07;5.43;;;20.00;99.90;;;;;;5077024;28;20223;-70
2023/08/28 04:31:31;;;;;;;7.35;5.70;;;19.90;99.90;;;;;;5084479;28;20219;-68
2023/08/28 04:34:22;;;;;;;9.43;6.30;;;20.00;99.90;;;;;;5077755;28;20224;-71
2023/08/28 04:37:11;;;;;;;7.22;5.88;;;20.00;99.90;;;;;;5083823;28;20226;-70
2023/08/28 04:40:00;;;;;;;6.28;5.30;;;19.90;99.90;;;;;;5096393;28;20314;-71
2023/08/28 04:42:51;;;;;;;7.53;6.07;;;19.80;99.90;;;;;;5084764;28;20226;-70
2023/08/28 04:45:44;;;;;;;9.98;5.93;;;20.00;99.90;;;;;;5101767;28;20238;-72
2023/08/28 04:48:33;;;;;;;6.50;5.90;;;20.30;99.90;;;;;;5097054;28;20234;-71
2023/08/28 04:51:23;;;;;;;7.03;5.50;;;20.40;99.90;;;;;;5087598;28;20649;-70
2023/08/28 04:54:13;;;;;;;9.10;5.85;;;20.50;99.90;;;;;;5099055;28;20724;-71
2023/08/28 04:57:03;;;;;;;7.78;5.32;;;20.60;99.90;;;;;;5088515;28;20705;-70
2023/08/28 04:59:52;;;;;;;8.05;5.18;;;20.60;99.90;;;;;;5092135;28;20235;-67
2023/08/28 05:02:44;;;;;;;5.70;4.68;;;20.60;99.90;;;;;;5080395;28;20323;-70
2023/08/28 05:05:34;;;;;;;5.65;5.10;;;20.60;99.90;;;;;;5097626;28;20231;-70
2023/08/28 05:08:25;;;;;;;6.13;5.20;;;20.50;99.90;;;;;;5082859;28;20317;-69
2023/08/28 05:11:14;;;;;;;8.38;5.00;;;20.40;99.90;;;;;;5079738;28;20207;-69
2023/08/28 05:14:03;;;;;;;6.45;5.07;;;20.40;99.90;;;;;;5101733;28;20827;-70
2023/08/28 05:16:52;;;;;;;5.00;4.50;;;20.40;99.90;;;;;;5085559;28;20235;-72
2023/08/28 05:19:41;;;;;;;5.68;4.60;;;20.40;99.90;;;;;;5059806;28;20392;-70
2023/08/28 05:22:30;;;;;;;4.65;4.22;;;20.50;99.90;;;;;;5074825;28;20228;-70
2023/08/28 05:25:21;;;;;;;5.38;4.50;;;20.50;99.90;;;;;;5076013;28;20254;-70
2023/08/28 05:28:10;;;;;;;5.38;4.63;;;20.50;99.90;;;;;;5078711;28;20706;-70
2023/08/28 05:31:00;;;;;;;5.10;4.22;;;20.60;99.90;;;;;;5067080;28;20231;-69
2023/08/28 05:33:49;;;;;;;5.53;4.80;;;20.80;99.90;;;;;;5093136;28;20210;-71
2023/08/28 05:36:38;;;;;;;4.95;4.40;;;20.60;99.90;;;;;;5078820;28;20728;-70
2023/08/28 05:39:27;;;;;;;5.05;4.55;;;20.60;99.90;;;;;;5073630;28;20312;-69
2023/08/28 05:42:18;;;;;;;5.40;4.68;;;20.60;99.90;;;;;;5075192;28;20359;-69
2023/08/28 05:45:09;;;;;;;4.85;4.25;;;20.70;99.90;;;;;;5077134;28;20230;-67
2023/08/28 05:47:58;;;;;;;6.93;4.28;;;20.70;99.90;;;;;;5070313;28;20236;-69
2023/08/28 05:50:50;;;;;;;7.72;4.55;;;20.70;99.90;;;;;;5074047;28;20259;-68
2023/08/28 05:53:40;;;;;;;4.93;3.97;;;20.80;99.90;;;;;;5085355;28;20227;-68
2023/08/28 05:56:32;;;;;;;5.63;4.70;;;20.60;99.90;;;;;;5091898;28;20238;-69
2023/08/28 05:59:23;;;;;;;4.95;4.45;;;20.50;13.70;;;;;;5084272;28;20689;-67
2023/08/28 06:02:12;;;;;;;6.35;4.90;;;20.50;99.90;;;;;;5075666;28;20972;-68
2023/08/28 06:05:02;;;;;;;4.40;3.88;;;20.70;99.90;;;;;;5084400;28;20248;-64
2023/08/28 06:07:51;;;;;;;4.63;3.75;;;20.70;1.00;;;;;;5079666;28;20219;-67
2023/08/28 06:10:42;;;;;;;4.28;3.80;;;20.90;99.90;;;;;;5089767;28;20219;-68
2023/08/28 06:13:31;;;;;;;5.32;4.13;;;21.00;99.90;;;;;;5075144;28;20326;-68
2023/08/28 06:16:23;;;;;;;4.25;3.83;;;21.00;57.00;;;;;;5083608;28;20226;-68
2023/08/28 06:19:12;;;;;;;5.72;3.65;;;20.90;99.90;;;;;;5096945;28;20226;-68
2023/08/28 06:22:04;;;;;;;5.70;3.85;;;20.90;1.00;;;;;;5062136;28;20215;-70
2023/08/28 06:24:53;;;;;;;4.32;3.70;;;21.20;1.00;;;;;;5079440;28;20714;-71
2023/08/28 06:27:43;;;;;;;4.72;3.60;;;21.40;1.00;;;;;;5036099;28;20292;-71
2023/08/28 06:30:32;;;;;;;3.83;3.40;;;21.50;1.00;;;;;;5064293;28;20235;-71
2023/08/28 06:33:23;;;;;;;4.63;3.22;;;21.60;1.00;;;;;;5096917;28;20233;-71
2023/08/28 06:36:12;;;;;;;5.00;3.30;;;21.90;99.90;;;;;;5082688;28;20313;-71
2023/08/28 06:39:02;;;;;;;7.22;3.42;;;21.80;99.90;;;;;;5076922;28;20250;-72
2023/08/28 06:41:51;;;;;;;6.85;3.65;;;21.90;20.10;;;;;;5086808;28;20712;-71
2023/08/28 06:44:41;;;;;;;4.22;3.20;;;22.10;89.10;;;;;;5061850;28;20227;-72
2023/08/28 06:47:30;;;;;;;4.22;3.10;;;22.10;99.90;;;;;;5085632;28;20230;-71
2023/08/28 06:50:21;;;;;;;5.63;3.40;;;22.20;99.90;;;;;;5080812;28;20271;-72
2023/08/28 06:53:10;;;;;;;3.50;3.10;;;22.10;99.90;;;;;;5073454;28;20745;-74
2023/08/28 06:55:59;;;;;;;3.88;2.72;;;22.20;99.90;;;;;;5094484;28;20234;-71
2023/08/28 06:58:48;;;;;;;4.05;2.90;;;22.30;1.00;;;;;;5092506;28;21139;-72
2023/08/28 07:01:38;;;;;;;3.78;3.40;;;22.30;1.00;;;;;;5080230;28;20579;-72
2023/08/28 07:04:29;;;;;;;3.03;2.72;;;22.50;99.90;;;;;;5079141;28;20235;-71
2023/08/28 07:07:20;;;;;;;4.32;3.30;;;22.70;1.00;;;;;;5094069;28;20686;-72
2023/08/28 07:10:09;;;;;;;3.58;3.28;;;22.80;9.40;;;;;;5091747;28;20219;-71
2023/08/28 07:12:58;;;;;;;4.18;3.65;;;22.80;1.00;;;;;;5094797;28;20230;-73
2023/08/28 07:15:57;;;;;;;8.38;3.80;;;23.00;99.90;;;;;;5077198;28;20369;-72
2023/08/28 07:18:46;;;;;;;4.63;3.85;;;23.20;1.00;;;;;;5071163;28;20227;-72
2023/08/28 07:21:35;;;;;;;4.63;4.00;;;23.50;99.90;;;;;;5076303;28;20238;-72
2023/08/28 07:24:25;;;;;;;8.02;4.43;;;23.50;99.90;;;;;;5087634;28;20823;-72
2023/08/28 07:27:14;;;;;;;5.15;4.30;;;23.30;99.90;;;;;;5104428;28;20215;-70
2023/08/28 07:30:04;;;;;;;6.53;4.00;;;23.40;99.90;;;;;;5089677;28;20235;-69
2023/08/28 07:32:53;;;;;;;4.90;4.40;;;23.60;99.90;;;;;;5077415;28;20230;-71
2023/08/28 07:35:46;;;;;;;5.10;3.95;;;23.60;1.00;;;;;;5075331;28;20270;-73
2023/08/28 07:38:36;;;;;;;8.15;4.60;;;23.60;1.00;;;;;;5074756;28;20236;-72
2023/08/28 07:41:27;;;;;;;8.45;4.50;;;23.70;1.00;;;;;;5077632;28;20265;-71
2023/08/28 07:44:16;;;;;;;5.65;4.20;;;23.90;1.00;;;;;;5078841;28;20815;-69
2023/08/28 07:47:06;;;;;;;8.20;4.32;;;23.90;1.00;;;;;;5076638;28;20223;-70
2023/08/28 07:49:55;;;;;;;7.38;4.47;;;24.00;1.00;;;;;;5079840;28;20238;-71
2023/08/28 07:52:44;;;;;;;4.72;4.18;;;24.20;99.90;;;;;;5075948;28;20330;-71
2023/08/28 07:55:34;;;;;;;7.07;5.50;;;24.60;99.90;;;;;;5083326;28;20238;-70
2023/08/28 07:58:24;;;;;;;6.55;5.20;;;25.10;99.90;;;;;;5082085;28;20226;-71
2023/08/28 08:01:13;;;;;;;5.20;4.70;;;25.20;99.90;;;;;;5079690;28;20233;-71
2023/08/28 08:04:02;;;;;;;5.38;4.40;;;25.00;99.90;;;;;;5103258;28;20227;-71
2023/08/28 08:06:51;;;;;;;5.38;4.82;;;24.70;99.90;;;;;;5096623;28;20211;-72
2023/08/28 08:09:41;;;;;;;7.70;5.07;;;24.40;99.90;;;;;;5100898;28;20323;-71
2023/08/28 08:12:30;;;;;;;6.22;4.53;;;24.20;99.90;;;;;;5071739;28;20227;-72
2023/08/28 08:15:20;;;;;;;6.88;4.55;;;24.10;99.90;;;;;;5082513;28;20214;-71
2023/08/28 08:18:09;;;;;;;6.47;4.78;;;24.30;99.90;;;;;;5071866;28;20343;-71
2023/08/28 08:20:59;;;;;;;6.43;4.70;;;24.40;1.00;;;;;;5084398;28;20717;-71
2023/08/28 08:23:49;;;;;;;5.35;4.85;;;24.40;99.90;;;;;;5081654;28;20223;-72
2023/08/28 08:26:37;;;;;;;5.80;5.05;;;25.00;99.90;;;;;;5083619;28;20739;-71
2023/08/28 08:29:27;;;;;;;6.40;4.95;;;25.00;99.90;;;;;;5080399;28;20227;-71
2023/08/28 08:32:18;;;;;;;7.10;5.22;;;24.90;99.90;;;;;;5074576;28;20674;-71
2023/08/28 08:35:08;;;;;;;5.70;4.90;;;25.00;99.90;;;;;;5091369;28;20365;-68
2023/08/28 08:38:00;;;;;;;8.55;5.13;;;25.00;99.90;;;;;;5086868;28;20720;-72
2023/08/28 08:40:53;;;;;;;6.88;5.18;;;24.80;99.90;;;;;;5081567;28;20263;-73
2023/08/28 08:43:42;;;;;;;7.63;5.13;;;25.00;99.90;;;;;;5079806;28;20603;-72
2023/08/28 08:46:31;;;;;;;4.90;4.47;;;25.60;99.90;;;;;;5075565;28;20725;-73
2023/08/28 08:49:27;;;;;;;5.05;4.20;;;26.40;99.90;;;;;;5074127;28;20235;-73
2023/08/28 08:52:18;;;;;;;6.82;4.43;;;26.30;99.90;;;;;;5095926;28;20239;-73
2023/08/28 08:55:17;;;;;;;5.43;4.90;;;26.30;65.50;;;;;;5098339;28;20776;-74
2023/08/28 08:58:11;;;;;;;5.43;4.35;;;25.80;99.90;;;;;;5092098;28;20231;-73
2023/08/28 09:01:02;;;;;;;7.20;4.32;;;25.30;99.90;;;;;;5094910;28;20223;-74
2023/08/28 09:03:52;;;;;;;4.53;3.88;;;26.00;99.90;;;;;;5079296;28;20659;-74
2023/08/28 09:06:43;;;;;;;5.28;3.72;;;26.40;80.50;;;;;;5089295;28;20603;-73
2023/08/28 09:09:32;;;;;;;4.18;3.55;;;26.60;37.50;;;;;;5083931;28;20242;-74
2023/08/28 09:12:22;;;;;;;4.40;3.72;;;26.90;90.00;;;;;;5078706;28;20223;-74
2023/08/28 09:15:12;;;;;;;5.35;3.90;;;27.40;16.00;;;;;;5083900;28;20216;-74
2023/08/28 09:18:02;;;;;;;4.07;3.67;;;27.70;16.90;;;;;;5080819;28;20522;-75
2023/08/28 09:21:07;;;;;;;5.07;3.72;;;28.10;7.50;;;;;;5095502;28;20231;-74
2023/08/28 09:23:59;;;;;;;12.45;11.13;;;27.30;11.30;;;;;;5095253;28;20221;-75
2023/08/28 09:26:52;;;;;;;7.10;6.47;;;26.50;15.20;;;;;;5082051;28;20719;-73
2023/08/28 09:29:42;;;;;;;4.20;3.80;;;25.90;44.70;;;;;;5068475;28;20363;-74
2023/08/28 09:32:30;;;;;;;3.63;3.33;;;25.90;99.90;;;;;;5077306;28;20227;-73
2023/08/28 09:35:21;;;;;;;4.82;3.78;;;25.60;91.90;;;;;;5097162;28;20320;-74
2023/08/28 09:38:11;;;;;;;6.60;3.85;;;25.40;99.90;;;;;;5056146;28;20231;-73
2023/08/28 09:41:03;;;;;;;4.15;3.65;;;25.20;99.90;;;;;;5056635;28;20534;-73
2023/08/28 09:43:52;;;;;;;4.30;3.90;;;24.90;99.90;;;;;;5041226;28;20236;-74
2023/08/28 09:46:43;;;;;;;4.72;3.67;;;24.80;99.90;;;;;;5055129;28;20231;-73
2023/08/28 09:49:31;;;;;;;5.25;3.70;;;24.50;99.90;;;;;;5044032;28;20258;-73
2023/08/28 09:52:25;;;;;;;6.25;3.47;;;24.30;99.90;;;;;;5058353;28;20228;-73
2023/08/28 09:55:15;;;;;;;5.53;3.78;;;24.10;99.90;;;;;;5043624;28;20675;-75
2023/08/28 09:58:10;;;;;;;4.88;3.80;;;24.00;99.90;;;;;;5038187;28;20307;-72
2023/08/28 10:01:00;;;;;;;5.47;3.50;;;23.90;99.90;;;;;;5035478;28;20231;-73
2023/08/28 10:03:50;;;;;;;4.13;3.55;;;23.80;99.90;;;;;;5051868;28;20351;-74
2023/08/28 10:06:45;;;;;;;3.85;3.42;;;24.00;99.90;;;;;;5043359;28;20220;-72
2023/08/28 10:09:35;;;;;;;4.95;3.58;;;24.00;99.90;;;;;;5042228;28;20313;-72
2023/08/28 10:12:28;;;;;;;5.45;3.38;;;24.20;99.90;;;;;;5044606;28;20572;-73
2023/08/28 10:15:19;;;;;;;4.15;3.72;;;24.30;99.90;;;;;;5043595;28;20251;-74
2023/08/28 10:18:13;;;;;;;4.07;3.67;;;24.60;99.90;;;;;;5057661;28;20238;-73
2023/08/28 10:21:02;;;;;;;5.60;3.80;;;24.60;99.90;;;;;;5054884;28;20233;-73
2023/08/28 10:23:52;;;;;;;5.68;3.70;;;24.90;99.90;;;;;;5036607;28;20228;-75
2023/08/28 10:26:43;;;;;;;3.30;3.00;;;25.50;99.90;;;;;;5041049;28;20236;-74
2023/08/28 10:29:35;;;;;;;8.10;3.65;;;25.80;93.00;;;;;;5059215;28;20319;-73
2023/08/28 10:32:26;;;;;;;4.93;3.70;;;25.90;79.90;;;;;;5050968;28;20279;-74
2023/08/28 10:35:17;;;;;;;6.07;3.55;;;25.80;68.90;;;;;;5044302;28;20228;-75
2023/08/28 10:38:06;;;;;;;3.97;3.30;;;25.90;99.90;;;;;;5060331;28;20213;-73
2023/08/28 10:40:59;;;;;;;3.47;3.17;;;25.90;99.90;;;;;;5044779;28;20297;-73
2023/08/28 10:43:50;;;;;;;4.75;3.55;;;26.00;25.70;;;;;;5044054;28;20687;-72
2023/08/28 10:46:40;;;;;;;5.05;3.80;;;26.20;95.00;;;;;;5048485;28;20227;-74
2023/08/28 10:49:30;;;;;;;3.85;3.30;;;25.80;99.90;;;;;;5042807;28;20236;-73
2023/08/28 10:52:20;;;;;;;4.53;3.65;;;25.80;46.60;;;;;;5059434;28;20220;-73
2023/08/28 10:55:10;;;;;;;6.20;3.75;;;26.10;62.70;;;;;;5059676;28;20615;-73
2023/08/28 10:58:03;;;;;;;3.80;3.10;;;26.30;29.00;;;;;;5069720;28;20585;-72
2023/08/28 11:01:11;;;;;;;3.63;3.15;;;27.40;15.40;;;;;;5058773;28;20227;-74
2023/08/28 11:04:01;;;;;;;5.05;3.40;;;28.20;1.00;;;;;;5053296;28;20219;-73
2023/08/28 11:06:51;;;;;;;4.43;3.60;;;27.20;9.80;;;;;;5060640;28;20223;-73
2023/08/28 11:09:41;;;;;;;3.78;3.45;;;26.40;38.70;;;;;;5040214;28;20228;-73
2023/08/28 11:12:50;;;;;;;4.90;3.47;;;25.70;99.90;;;;;;5065787;28;20220;-72
2023/08/28 11:15:41;;;;;;;8.32;3.70;;;25.10;66.90;;;;;;5074708;28;20714;-73
2023/08/28 11:18:31;;;;;;;10.40;3.65;;;24.70;99.90;;;;;;5082787;28;20215;-73
2023/08/28 11:21:25;;;;;;;5.15;3.35;;;24.30;99.90;;;;;;5081215;28;20229;-74
2023/08/28 11:24:25;;;;;;;4.30;3.90;;;24.20;99.90;;;;;;5082519;27;20297;-74
2023/08/28 11:27:32;;;;;;;4.28;3.67;;;24.00;99.90;;;;;;5084034;28;20289;-74
2023/08/28 11:30:22;;;;;;;5.40;3.90;;;23.80;99.90;;;;;;5082635;28;20372;-74
2023/08/28 11:33:12;;;;;;;5.60;3.63;;;23.80;99.90;;;;;;5070393;28;20684;-72
2023/08/28 11:36:01;;;;;;;4.07;3.63;;;23.90;99.90;;;;;;5080924;28;20627;-73
2023/08/28 11:38:50;;;;;;;6.05;3.95;;;23.90;99.90;;;;;;5094849;28;20621;-72
2023/08/28 11:41:43;;;;;;;8.32;4.47;;;24.20;99.90;;;;;;5073371;28;21106;-73
2023/08/28 11:44:33;;;;;;;5.28;4.22;;;24.30;99.90;;;;;;5084694;28;20231;-74
2023/08/28 11:47:26;;;;;;;5.22;3.88;;;24.40;99.90;;;;;;5094093;28;20223;-74
2023/08/28 11:50:15;;;;;;;4.18;3.40;;;24.20;99.90;;;;;;5078863;28;20302;-73
2023/08/28 11:53:04;;;;;;;4.35;3.95;;;23.90;99.90;;;;;;5078784;28;20215;-72
2023/08/28 11:55:54;;;;;;;4.22;3.70;;;23.80;99.90;;;;;;5065903;28;20215;-73
2023/08/28 11:58:46;;;;;;;3.92;3.60;;;23.60;99.90;;;;;;5105357;28;20218;-72
2023/08/28 12:01:35;;;;;;;6.13;3.90;;;23.60;99.90;;;;;;5077724;28;20676;-73
2023/08/28 12:04:25;;;;;;;7.10;3.90;;;23.60;99.90;;;;;;5083835;28;20214;-72
2023/08/28 12:07:17;;;;;;;6.40;4.00;;;23.40;99.90;;;;;;5066501;28;20249;-74
2023/08/28 12:10:08;;;;;;;6.97;3.83;;;23.40;99.90;;;;;;5084932;28;20238;-73
2023/08/28 12:12:59;;;;;;;4.95;3.60;;;23.40;99.90;;;;;;5098899;28;20717;-73
2023/08/28 12:15:49;;;;;;;4.95;3.60;;;23.30;99.90;;;;;;5083281;28;20222;-72
2023/08/28 12:18:50;;;;;;;8.52;3.80;;;23.30;99.90;;;;;;5084394;28;20236;-72
2023/08/28 12:21:41;;;;;;;5.38;4.07;;;23.20;99.90;;;;;;5084414;28;20227;-72
2023/08/28 12:24:31;;;;;;;4.95;3.92;;;23.10;99.90;;;;;;5097243;28;20303;-74
2023/08/28 12:27:27;;;;;;;7.25;5.28;;;23.00;99.90;;;;;;5097380;28;21058;-79
2023/08/28 12:30:20;;;;;;;7.50;5.60;;;22.90;99.90;;;;;;5089354;28;20215;-79
2023/08/28 12:33:10;;;;;;;9.00;6.15;;;22.70;1.00;;;;;;5099702;28;20267;-73
2023/08/28 12:36:04;;;;;;;6.63;5.55;;;22.70;1.00;;;;;;5098212;28;20395;-75
2023/08/28 12:38:54;;;;;;;7.30;5.70;;;22.60;1.00;;;;;;5079307;28;20220;-73
2023/08/28 12:41:49;;;;;;;9.05;5.78;;;22.60;1.00;;;;;;5080418;28;20381;-75
2023/08/28 12:44:41;;;;;;;5.97;4.97;;;22.60;1.00;;;;;;5090639;28;20319;-72
2023/08/28 12:47:30;;;;;;;8.73;5.15;;;22.60;1.00;;;;;;5087648;28;20234;-72
2023/08/28 12:50:21;;;;;;;14.13;7.15;;;22.50;1.00;;;;;;5081287;28;20278;-72
2023/08/28 12:53:12;;;;;;;20.52;8.10;;;22.60;1.00;;;;;;5102412;28;20365;-75
2023/08/28 12:56:01;;;;;;;15.65;8.95;;;22.40;1.00;;;;;;5094460;28;20234;-75
2023/08/28 12:58:50;;;;;;;8.50;5.85;;;22.30;99.90;;;;;;5084730;28;20622;-75
2023/08/28 13:01:42;;;;;;;7.85;6.10;;;22.00;1.00;;;;;;5082528;28;20246;-74
2023/08/28 13:04:32;;;;;;;12.23;6.93;;;21.90;12.20;;;;;;5073809;28;20315;-74
2023/08/28 13:07:23;;;;;;;7.80;6.82;;;21.90;1.00;;;;;;5076872;28;20781;-75
2023/08/28 13:10:12;;;;;;;10.02;7.03;;;21.80;33.50;;;;;;5081956;28;20258;-75
2023/08/28 13:13:01;;;;;;;12.32;7.50;;;21.90;39.80;;;;;;5093764;28;20339;-75
2023/08/28 13:15:50;;;;;;;9.85;7.13;;;21.90;18.70;;;;;;5095764;28;20475;-74
2023/08/28 13:18:40;;;;;;;8.48;7.07;;;21.70;99.90;;;;;;5078638;28;20670;-76
2023/08/28 13:21:37;;;;;;;9.10;6.93;;;21.80;1.00;;;;;;5084867;28;20288;-74
2023/08/28 13:24:27;;;;;;;11.25;7.32;;;21.80;91.20;;;;;;5086138;28;20675;-75
2023/08/28 13:27:31;;;;;;;14.40;9.82;;;21.70;1.00;;;;;;5095108;28;20265;-75
2023/08/28 13:30:20;;;;;;;9.13;7.40;;;21.90;99.90;;;;;;5078870;28;20223;-76
2023/08/28 13:33:09;;;;;;;11.45;7.50;;;22.00;90.70;;;;;;5095258;28;20317;-76
2023/08/28 13:35:59;;;;;;;8.65;7.75;;;22.10;99.90;;;;;;5089599;28;20227;-76
2023/08/28 13:38:48;;;;;;;8.68;7.70;;;22.30;99.90;;;;;;5089580;28;20249;-77
2023/08/28 13:41:39;;;;;;;12.27;7.55;;;22.30;99.90;;;;;;5092779;28;20387;-77
2023/08/28 13:44:29;;;;;;;12.07;8.85;;;22.30;1.00;;;;;;5090154;28;20364;-78
2023/08/28 13:47:19;;;;;;;10.30;8.15;;;22.40;99.90;;;;;;5095663;28;20215;-77
2023/08/28 13:50:09;;;;;;;8.00;7.20;;;22.30;99.90;;;;;;5091170;28;20305;-76
2023/08/28 13:52:58;;;;;;;11.20;7.97;;;22.30;99.90;;;;;;5094187;28;20279;-77
2023/08/28 13:55:48;;;;;;;12.88;8.10;;;22.30;99.90;;;;;;5093501;28;20223;-77
2023/08/28 13:58:39;;;;;;;9.98;7.95;;;22.30;1.00;;;;;;5074538;28;20258;-75
2023/08/28 14:01:31;;;;;;;10.88;8.40;;;22.40;99.90;;;;;;5070809;28;20697;-77
2023/08/28 14:04:20;;;;;;;9.88;7.60;;;22.40;1.00;;;;;;5098134;28;20877;-75
2023/08/28 14:07:09;;;;;;;14.55;8.52;;;22.30;1.00;;;;;;5070471;28;20404;-75
2023/08/28 14:09:58;;;;;;;11.57;8.48;;;22.20;99.90;;;;;;5096937;28;20403;-76
2023/08/28 14:12:48;;;;;;;9.60;8.38;;;22.30;99.90;;;;;;5077655;28;20238;-75
2023/08/28 14:15:38;;;;;;;10.60;8.45;;;22.30;1.00;;;;;;5082779;28;20320;-74
2023/08/28 14:18:27;;;;;;;8.75;7.85;;;22.20;1.00;;;;;;5096000;28;20582;-76
2023/08/28 14:21:17;;;;;;;10.23;9.13;;;22.20;80.00;;;;;;5076557;28;20235;-76
2023/08/28 14:24:08;;;;;;;12.63;8.68;;;22.30;1.00;;;;;;5073867;28;20745;-75
2023/08/28 14:26:57;;;;;;;12.57;7.82;;;22.30;99.90;;;;;;5077534;28;20597;-75
2023/08/28 14:29:46;;;;;;;10.10;7.65;;;22.40;1.00;;;;;;5082450;28;20219;-75
2023/08/28 14:32:36;;;;;;;9.93;7.97;;;22.30;1.00;;;;;;5077981;28;20231;-76
2023/08/28 14:35:25;;;;;;;10.80;8.45;;;22.20;1.00;;;;;;5073032;28;20246;-75
2023/08/28 14:38:14;;;;;;;9.55;8.27;;;22.10;1.00;;;;;;5071759;28;20230;-76
2023/08/28 14:41:03;;;;;;;10.60;7.72;;;22.20;1.00;;;;;;5076326;28;20219;-76
2023/08/28 14:43:52;;;;;;;11.13;7.85;;;22.20;99.90;;;;;;5079385;28;20230;-75
2023/08/28 14:46:42;;;;;;;14.07;7.80;;;22.20;87.70;;;;;;5073039;28;20235;-76